Time;durP1;ratioP1;P1;durP2;ratioP2;P2;SDS_P1;SDS_P2;PMS_P1;PMS_P2;Temp;Humidity;BMP_temperature;BMP_pressure;BME280_temperature;BME280_humidity;BME280_pressure;Samples;Min_cycle;Max_cycle;Signal;HPM_P1;HPM_P2
2024/04/25 00:00:05;;;;;;;3.77;3.47;;;;;;;6.38;100.00;100348.16;7667802;23;20566;-67
2024/04/25 00:03:31;;;;;;;2.80;2.60;;;;;;;6.38;100.00;100352.69;7662974;23;20306;-66
2024/04/25 00:06:53;;;;;;;5.03;2.63;;;;;;;6.35;100.00;100348.41;7652443;23;20279;-66
2024/04/25 00:10:15;;;;;;;4.10;2.50;;;;;;;6.33;100.00;100353.03;7654091;23;20279;-67
2024/04/25 00:13:37;;;;;;;3.63;3.33;;;;;;;6.28;100.00;100360.56;7670003;23;20274;-67
2024/04/25 00:16:59;;;;;;;3.57;3.27;;;;;;;6.11;100.00;100357.53;7632325;23;20436;-66
2024/04/25 00:20:25;;;;;;;3.80;3.50;;;;;;;6.25;100.00;100352.81;7660992;23;20597;-66
2024/04/25 00:23:47;;;;;;;5.10;3.77;;;;;;;6.26;100.00;100354.50;7666729;23;20463;-67
2024/04/25 00:27:10;;;;;;;3.93;3.47;;;;;;;6.39;100.00;100347.19;7657852;23;20274;-68
2024/04/25 00:30:32;;;;;;;4.07;3.77;;;;;;;6.41;100.00;100352.41;7655058;23;20263;-67
2024/04/25 00:33:54;;;;;;;3.33;2.70;;;;;;;6.32;100.00;100339.78;7664084;23;20278;-67
2024/04/25 00:37:19;;;;;;;3.17;2.93;;;;;;;6.25;100.00;100350.13;7657802;23;20275;-66
2024/04/25 00:40:42;;;;;;;2.67;2.47;;;;;;;6.27;100.00;100345.50;7657319;23;20583;-67
2024/04/25 00:44:05;;;;;;;3.60;3.30;;;;;;;6.34;100.00;100346.69;7669594;23;20275;-67
2024/04/25 00:47:27;;;;;;;4.43;2.80;;;;;;;6.39;100.00;100343.66;7647970;23;20266;-66
2024/04/25 00:50:50;;;;;;;3.07;2.87;;;;;;;6.47;100.00;100340.38;7659474;23;20268;-67
2024/04/25 00:54:15;;;;;;;3.40;3.10;;;;;;;6.52;100.00;100333.69;7672144;23;20960;-68
2024/04/25 00:57:41;;;;;;;2.93;2.73;;;;;;;6.41;100.00;100329.19;7660351;23;20270;-67
2024/04/25 01:01:05;;;;;;;4.13;3.27;;;;;;;6.50;100.00;100324.06;7657934;23;20271;-67
2024/04/25 01:04:27;;;;;;;3.00;2.80;;;;;;;6.59;100.00;100321.50;7664480;23;20282;-67
2024/04/25 01:07:51;;;;;;;2.70;2.50;;;;;;;6.71;100.00;100323.19;7656634;23;20259;-67
2024/04/25 01:11:17;;;;;;;3.47;3.17;;;;;;;6.65;100.00;100317.47;7662333;23;20599;-67
2024/04/25 01:14:39;;;;;;;3.80;2.73;;;;;;;6.64;100.00;100324.66;7672256;23;20334;-67
2024/04/25 01:18:02;;;;;;;9.10;2.83;;;;;;;6.60;100.00;100317.84;7651203;23;20326;-67
2024/04/25 01:21:25;;;;;;;3.30;3.00;;;;;;;6.64;100.00;100319.28;7662496;23;20636;-67
2024/04/25 01:24:50;;;;;;;2.97;2.77;;;;;;;6.60;100.00;100323.19;7670445;23;20462;-67
2024/04/25 01:28:15;;;;;;;3.07;2.80;;;;;;;6.53;100.00;100321.97;7666419;23;20267;-67
2024/04/25 01:31:38;;;;;;;3.63;3.33;;;;;;;6.46;100.00;100318.13;7652498;23;20286;-66
2024/04/25 01:35:01;;;;;;;2.80;2.60;;;;;;;6.39;100.00;100314.22;7661614;23;20267;-67
2024/04/25 01:38:24;;;;;;;3.37;3.10;;;;;;;6.42;100.00;100312.13;7667837;23;20598;-66
2024/04/25 01:41:49;;;;;;;4.30;3.00;;;;;;;6.47;100.00;100306.41;7656694;23;20599;-67
2024/04/25 01:45:11;;;;;;;2.83;2.67;;;;;;;6.47;100.00;100303.72;7668228;23;20275;-66
2024/04/25 01:48:33;;;;;;;3.30;3.10;;;;;;;6.37;100.00;100303.66;7666532;23;20275;-67
2024/04/25 01:51:56;;;;;;;3.00;2.77;;;;;;;6.35;100.00;100299.38;7660209;23;20283;-67
2024/04/25 01:55:18;;;;;;;2.47;2.27;;;;;;;6.47;100.00;100302.91;7657148;23;20267;-66
2024/04/25 01:58:47;;;;;;;3.53;3.23;;;;;;;6.56;100.00;100300.31;7669198;23;20271;-67
2024/04/25 02:02:09;;;;;;;2.53;2.40;;;;;;;6.61;100.00;100307.97;7646785;23;20263;-67
2024/04/25 02:05:31;;;;;;;2.53;2.33;;;;;;;6.73;100.00;100296.25;7653593;23;20445;-66
2024/04/25 02:08:54;;;;;;;2.53;2.33;;;;;;;6.73;100.00;100298.94;7667127;23;20275;-67
2024/04/25 02:12:18;;;;;;;3.27;2.80;;;;;;;6.72;100.00;100297.22;7662521;23;20850;-67
2024/04/25 02:15:43;;;;;;;2.73;2.53;;;;;;;6.65;100.00;100293.38;7662005;23;20274;-67
2024/04/25 02:19:05;;;;;;;3.20;2.77;;;;;;;6.55;100.00;100300.44;7662214;23;20267;-66
2024/04/25 02:26:11;;;;;;;3.63;3.33;;;;;;;6.67;100.00;100300.31;7659993;23;20283;-67
2024/04/25 02:29:33;;;;;;;2.43;2.23;;;;;;;6.75;100.00;100295.16;7669628;23;20319;-67
2024/04/25 02:32:58;;;;;;;3.17;2.80;;;;;;;6.82;100.00;100298.19;7646270;23;20267;-67
2024/04/25 02:36:21;;;;;;;3.67;3.37;;;;;;;6.88;100.00;100295.88;7659135;23;20271;-67
2024/04/25 02:39:43;;;;;;;3.03;2.83;;;;;;;6.72;100.00;100289.19;7667730;23;20267;-67
2024/04/25 02:43:06;;;;;;;3.57;2.70;;;;;;;6.64;100.00;100278.25;7661450;23;20298;-67
2024/04/25 02:46:26;;;;;;;2.80;2.60;;;;;;;6.54;100.00;100286.22;7660357;23;20571;-67
2024/04/25 02:49:51;;;;;;;3.03;2.83;;;;;;;6.47;100.00;100287.66;7664199;23;20263;-66
2024/04/25 02:53:10;;;;;;;3.27;3.03;;;;;;;6.49;100.00;100282.22;7662614;23;20279;-67
2024/04/25 02:56:32;;;;;;;3.53;2.77;;;;;;;6.47;100.00;100272.47;7658535;23;20271;-67
2024/04/25 02:59:52;;;;;;;3.40;3.10;;;;;;;6.53;100.00;100279.13;7665971;23;20267;-66
2024/04/25 03:03:14;;;;;;;6.30;3.13;;;;;;;6.47;100.00;100277.81;7659875;23;20315;-66
2024/04/25 03:06:39;;;;;;;3.37;3.07;;;;;;;6.49;100.00;100272.34;7652572;23;20267;-67
2024/04/25 03:10:02;;;;;;;3.40;3.10;;;;;;;6.65;100.00;100278.16;7666469;23;20267;-67
2024/04/25 03:13:22;;;;;;;2.73;2.50;;;;;;;6.68;100.00;100271.66;7663145;23;20267;-67
2024/04/25 03:16:44;;;;;;;5.57;3.40;;;;;;;6.61;100.00;100275.84;7646814;23;20275;-67
2024/04/25 03:20:08;;;;;;;3.67;3.37;;;;;;;6.54;100.00;100277.31;7655547;23;20274;-67
2024/04/25 03:23:31;;;;;;;7.47;6.47;;;;;;;6.51;100.00;100282.94;7666195;23;20266;-67
2024/04/25 03:26:53;;;;;;;3.80;3.50;;;;;;;6.48;100.00;100289.38;7659341;23;20292;-67
2024/04/25 03:30:13;;;;;;;5.00;3.40;;;;;;;6.50;100.00;100284.75;7660520;23;20279;-68
2024/04/25 03:33:36;;;;;;;4.60;3.07;;;;;;;6.47;100.00;100274.28;7662651;23;20271;-67
2024/04/25 03:36:58;;;;;;;3.53;2.77;;;;;;;6.46;100.00;100280.63;7653127;23;20583;-68
2024/04/25 03:40:25;;;;;;;4.03;3.23;;;;;;;6.45;100.00;100282.44;7657431;23;20283;-67
2024/04/25 03:43:48;;;;;;;4.37;2.97;;;;;;;6.47;100.00;100283.19;7671325;23;20575;-68
2024/04/25 03:47:11;;;;;;;3.10;2.90;;;;;;;6.54;100.00;100280.84;7661916;23;20270;-68
2024/04/25 03:50:33;;;;;;;3.40;3.10;;;;;;;6.56;100.00;100284.25;7619203;23;20523;-66
2024/04/25 03:53:56;;;;;;;30.23;23.67;;;;;;;6.65;100.00;100283.50;7669248;23;20274;-65
2024/04/25 03:57:21;;;;;;;20.73;18.57;;;;;;;6.65;100.00;100283.50;7659616;23;20274;-66
2024/04/25 04:00:44;;;;;;;8.17;7.33;;;;;;;6.87;100.00;100293.28;7651824;23;20267;-66
2024/04/25 04:04:07;;;;;;;8.33;7.00;;;;;;;6.90;100.00;100290.38;7659940;23;20271;-67
2024/04/25 04:07:29;;;;;;;35.27;30.73;;;;;;;6.81;100.00;100286.63;7657524;23;20310;-67
2024/04/25 04:10:52;;;;;;;49.53;44.33;;;;;;;6.65;100.00;100282.66;7654010;23;20279;-65
2024/04/25 04:14:17;;;;;;;25.17;22.33;;;;;;;6.59;100.00;100288.50;7663767;23;20555;-66
2024/04/25 04:17:39;;;;;;;11.60;9.90;;;;;;;6.54;100.00;100286.22;7652798;23;20342;-66
2024/04/25 04:21:02;;;;;;;5.80;4.33;;;;;;;6.55;100.00;100287.91;7653201;23;20271;-66
2024/04/25 04:24:25;;;;;;;4.13;3.83;;;;;;;6.64;100.00;100287.16;7668464;23;20551;-66
2024/04/25 04:27:47;;;;;;;4.93;4.47;;;;;;;6.76;100.00;100293.34;7657931;23;20322;-66
2024/04/25 04:31:12;;;;;;;5.67;3.87;;;;;;;6.91;100.00;100292.91;7655577;23;20308;-65
2024/04/25 04:34:34;;;;;;;4.70;4.27;;;;;;;6.91;100.00;100292.91;7665122;23;20334;-66
2024/04/25 04:37:57;;;;;;;5.00;4.50;;;;;;;6.92;100.00;100291.09;7657651;23;20646;-66
2024/04/25 04:41:19;;;;;;;5.57;4.53;;;;;;;6.97;100.00;100291.53;7654319;23;20314;-66
2024/04/25 04:44:42;;;;;;;4.67;4.27;;;;;;;6.70;100.00;100292.00;7669186;23;20287;-67
2024/04/25 04:48:07;;;;;;;4.87;4.47;;;;;;;6.45;100.00;100290.47;7650622;23;20275;-67
2024/04/25 04:51:29;;;;;;;5.87;4.57;;;;;;;6.61;100.00;100295.47;7658162;23;20275;-67
2024/04/25 04:54:52;;;;;;;5.87;5.37;;;;;;;6.69;100.00;100293.00;7668305;23;20271;-66
2024/04/25 04:58:15;;;;;;;4.10;3.77;;;;;;;6.72;100.00;100298.09;7667166;23;20271;-66
2024/04/25 05:01:37;;;;;;;4.77;4.23;;;;;;;6.89;100.00;100285.97;7656088;23;20494;-66
2024/04/25 05:05:02;;;;;;;4.90;4.40;;;;;;;6.88;100.00;100287.81;7662115;23;20827;-66
2024/04/25 05:08:25;;;;;;;4.70;4.30;;;;;;;6.83;100.00;100289.16;7665091;23;20263;-67
2024/04/25 05:11:48;;;;;;;5.47;4.97;;;;;;;6.85;100.00;100289.88;7662036;23;20270;-67
2024/04/25 05:15:10;;;;;;;6.27;5.67;;;;;;;7.05;100.00;100284.56;7666800;23;20283;-66
2024/04/25 05:18:33;;;;;;;7.50;6.83;;;;;;;7.08;100.00;100288.81;7664979;23;20275;-66
2024/04/25 05:21:57;;;;;;;9.00;8.20;;;;;;;7.24;100.00;100284.72;7657685;23;20267;-66
2024/04/25 05:25:20;;;;;;;10.27;8.63;;;;;;;7.26;100.00;100296.16;7657225;23;20295;-66
2024/04/25 05:28:43;;;;;;;10.37;9.27;;;;;;;7.25;100.00;100289.13;7671822;23;20271;-65
2024/04/25 05:32:05;;;;;;;8.83;7.93;;;;;;;7.21;100.00;100286.81;7649112;23;20279;-65
2024/04/25 05:35:27;;;;;;;9.43;8.53;;;;;;;7.19;100.00;100292.31;7659981;23;20279;-64
2024/04/25 05:38:52;;;;;;;8.33;7.43;;;;;;;7.12;100.00;100293.81;7667480;23;20893;-67
2024/04/25 05:42:14;;;;;;;10.00;7.90;;;;;;;7.12;100.00;100288.44;7656335;23;20266;-66
2024/04/25 05:45:37;;;;;;;11.70;9.43;;;;;;;6.94;100.00;100292.66;7649331;23;20271;-67
2024/04/25 05:48:59;;;;;;;10.57;9.47;;;;;;;7.10;100.00;100294.91;7667376;23;20267;-66
2024/04/25 05:52:23;;;;;;;10.80;9.63;;;;;;;7.06;100.00;100293.47;7654365;23;20282;-69
2024/04/25 05:55:48;;;;;;;11.70;10.60;;;;;;;7.20;100.00;100295.84;7654916;23;20275;-68
2024/04/25 05:59:12;;;;;;;11.03;9.83;;;;;;;7.38;100.00;100299.66;7661370;23;20267;-67
2024/04/25 06:02:34;;;;;;;13.83;12.47;;;;;;;7.39;100.00;100303.16;7641666;23;20759;-67
2024/04/25 06:05:56;;;;;;;11.73;10.53;;;;;;;7.24;100.00;100303.50;7652170;23;20263;-67
2024/04/25 06:09:18;;;;;;;13.87;12.40;;;;;;;7.30;100.00;100298.59;7641814;23;20584;-66
2024/04/25 06:12:45;;;;;;;12.43;11.27;;;;;;;7.44;100.00;100300.97;7655609;23;20323;-66
2024/04/25 06:16:08;;;;;;;13.77;12.37;;;;;;;7.45;100.00;100297.31;7646927;23;20267;-67
2024/04/25 06:19:31;;;;;;;12.43;11.33;;;;;;;7.59;100.00;100299.66;7661558;23;20275;-67
2024/04/25 06:22:53;;;;;;;12.77;11.37;;;;;;;7.60;100.00;100301.34;7655557;23;20286;-68
2024/04/25 06:26:15;;;;;;;11.70;10.60;;;;;;;7.87;100.00;100298.97;7655072;23;20275;-66
2024/04/25 06:29:40;;;;;;;12.33;11.07;;;;;;;7.61;100.00;100303.06;7663918;23;20279;-67
2024/04/25 06:33:02;;;;;;;13.93;11.77;;;;;;;7.71;100.00;100312.88;7648530;23;20928;-66
2024/04/25 06:36:24;;;;;;;13.83;12.43;;;;;;;7.54;100.00;100309.91;7653696;23;20291;-67
2024/04/25 06:39:47;;;;;;;15.93;11.40;;;;;;;7.70;100.00;100303.09;7661263;23;20604;-66
2024/04/25 06:43:09;;;;;;;13.00;11.60;;;;;;;7.31;100.00;100311.88;7661307;23;20283;-66
2024/04/25 06:46:34;;;;;;;18.27;16.57;;;;;;;7.89;100.00;100310.41;7647093;23;20282;-68
2024/04/25 06:49:56;;;;;;;12.33;11.20;;;;;;;8.08;100.00;100308.69;7661908;23;20283;-67
2024/04/25 06:53:18;;;;;;;13.57;12.17;;;;;;;8.30;100.00;100307.69;7660016;23;20275;-68
2024/04/25 06:56:41;;;;;;;11.60;10.30;;;;;;;8.08;100.00;100318.56;7653136;23;20278;-65
2024/04/25 07:00:04;;;;;;;11.93;10.60;;;;;;;8.12;100.00;100306.56;7664261;23;20267;-69
2024/04/25 07:03:29;;;;;;;14.67;12.67;;;;;;;8.19;100.00;100309.56;7660743;23;20303;-67
2024/04/25 07:40:46;;;;;;;20.30;17.00;;;;;;;7.90;100.00;100318.34;7626113;23;20266;-66
2024/04/25 07:44:08;;;;;;;15.63;14.17;;;;;;;8.13;100.00;100310.97;7667661;23;20287;-67
2024/04/25 07:47:31;;;;;;;16.20;14.47;;;;;;;8.64;100.00;100314.41;7635175;23;20279;-66
2024/04/25 07:50:53;;;;;;;19.70;17.67;;;;;;;9.03;100.00;100301.91;7653341;23;20270;-66
2024/04/25 07:54:16;;;;;;;15.03;13.13;;;;;;;9.04;100.00;100302.75;7663206;23;20275;-66
2024/04/25 07:57:41;;;;;;;16.70;14.13;;;;;;;9.35;100.00;100305.16;7653051;23;20271;-66
2024/04/25 08:01:03;;;;;;;14.93;13.50;;;;;;;9.28;100.00;100301.31;7654584;23;20766;-66
2024/04/25 08:04:25;;;;;;;16.43;13.73;;;;;;;8.84;100.00;100309.94;7663068;23;20266;-66
2024/04/25 08:07:48;;;;;;;12.93;11.67;;;;;;;8.29;100.00;100302.44;7653628;23;20271;-67
2024/04/25 08:11:11;;;;;;;14.20;12.13;;;;;;;9.12;100.00;100300.19;7649606;23;20435;-66
2024/04/25 08:14:38;;;;;;;13.50;12.20;;;;;;;9.53;100.00;100295.34;7667418;23;20275;-66
2024/04/25 08:18:00;;;;;;;12.03;10.83;;;;;;;9.71;100.00;100292.78;7651914;23;20266;-66
2024/04/25 08:21:23;;;;;;;11.37;10.27;;;;;;;9.39;100.00;100297.63;7655636;23;20271;-66
2024/04/25 08:24:46;;;;;;;11.60;10.43;;;;;;;9.49;100.00;100301.19;7664997;23;20266;-66
2024/04/25 08:28:10;;;;;;;10.30;8.80;;;;;;;9.68;100.00;100298.44;7658446;23;20311;-65
2024/04/25 08:31:35;;;;;;;10.37;7.20;;;;;;;9.62;100.00;100302.56;7649828;23;20608;-66
2024/04/25 08:34:57;;;;;;;9.70;8.23;;;;;;;9.58;100.00;100300.31;7667442;23;20607;-66
2024/04/25 08:38:19;;;;;;;7.93;7.10;;;;;;;8.73;100.00;100294.78;7662817;23;20271;-65
2024/04/25 08:41:45;;;;;;;6.67;6.03;;;;;;;8.74;100.00;100303.72;7658244;23;20270;-65
2024/04/25 08:45:09;;;;;;;8.73;6.73;;;;;;;9.29;100.00;100289.59;7666419;23;20267;-66
2024/04/25 08:48:36;;;;;;;6.37;5.80;;;;;;;9.02;100.00;100286.75;7658036;23;20271;-65
2024/04/25 08:51:59;;;;;;;6.10;5.53;;;;;;;9.24;100.00;100297.22;7649258;23;20267;-66
2024/04/25 08:55:21;;;;;;;5.67;5.17;;;;;;;9.34;100.00;100286.47;7654142;23;20283;-66
2024/04/25 08:58:44;;;;;;;4.30;3.90;;;;;;;8.88;100.00;100291.69;7664989;23;20271;-67
2024/04/25 09:02:13;;;;;;;3.70;3.40;;;;;;;9.32;100.00;100293.84;7643293;23;20670;-66
2024/04/25 09:05:38;;;;;;;4.07;3.67;;;;;;;9.31;100.00;100290.28;7655811;23;20267;-66
2024/04/25 09:09:00;;;;;;;3.70;3.40;;;;;;;10.50;100.00;100287.84;7662624;23;20271;-65
2024/04/25 09:12:23;;;;;;;8.13;5.17;;;;;;;9.30;100.00;100288.63;7652706;23;20274;-65
2024/04/25 09:15:46;;;;;;;6.77;5.60;;;;;;;9.56;100.00;100288.84;7655368;23;20362;-64
2024/04/25 09:19:08;;;;;;;5.13;4.63;;;;;;;8.91;100.00;100278.81;7658602;23;20271;-67
2024/04/25 09:22:34;;;;;;;5.10;4.70;;;;;;;9.20;100.00;100278.84;7650347;23;20278;-67
2024/04/25 09:25:57;;;;;;;5.00;4.57;;;;;;;10.36;100.00;100279.28;7654025;23;20267;-66
2024/04/25 09:29:20;;;;;;;3.63;2.97;;;;;;;10.73;100.00;100271.09;7662964;23;20267;-68
2024/04/25 09:32:44;;;;;;;4.10;2.83;;;;;;;10.57;100.00;100270.94;7643740;23;20291;-67
2024/04/25 09:36:08;;;;;;;2.23;2.07;;;;;;;10.58;100.00;100267.22;7657510;23;20302;-65
2024/04/25 09:39:33;;;;;;;4.73;3.97;;;;;;;10.35;100.00;100266.78;7667195;23;20282;-65
2024/04/25 09:42:55;;;;;;;3.83;3.27;;;;;;;11.61;100.00;100262.97;7660826;23;20263;-68
2024/04/25 09:46:25;;;;;;;5.13;2.73;;;;;;;12.30;100.00;100260.19;7657605;23;20267;-67
2024/04/25 09:49:52;;;;;;;2.67;2.40;;;;;;;11.62;100.00;100266.53;7660436;23;20334;-69
2024/04/25 09:53:28;;;;;;;2.57;2.37;;;;;;;10.92;100.00;100270.97;7667636;23;20267;-70
2024/04/25 09:57:00;;;;;;;3.77;3.47;;;;;;;11.67;100.00;100264.22;7651633;23;20259;-69
2024/04/25 10:00:22;;;;;;;5.43;3.87;;;;;;;10.68;100.00;100265.31;7648065;23;20306;-65
2024/04/25 10:03:45;;;;;;;4.40;4.00;;;;;;;10.02;100.00;100261.09;7659583;23;20283;-65
2024/04/25 10:07:08;;;;;;;3.87;3.53;;;;;;;9.99;100.00;100266.78;7655322;23;20275;-68
2024/04/25 10:10:30;;;;;;;3.00;2.80;;;;;;;9.19;100.00;100263.69;7650015;23;20279;-66
2024/04/25 10:13:55;;;;;;;4.03;3.30;;;;;;;10.79;100.00;100257.00;7660446;23;20283;-69
2024/04/25 10:17:25;;;;;;;3.90;3.50;;;;;;;10.62;100.00;100257.81;7648640;23;20271;-66
2024/04/25 10:20:48;;;;;;;3.90;3.60;;;;;;;10.59;100.00;100254.59;7651559;23;20271;-64
2024/04/25 10:24:11;;;;;;;3.90;3.60;;;;;;;10.91;100.00;100260.34;7664361;23;20267;-66
2024/04/25 10:27:34;;;;;;;4.30;3.93;;;;;;;10.42;100.00;100254.41;7654388;23;20278;-66
2024/04/25 10:30:59;;;;;;;4.93;4.53;;;;;;;11.04;100.00;100258.09;7634692;23;20271;-68
2024/04/25 10:34:22;;;;;;;4.90;4.50;;;;;;;11.74;100.00;100252.66;7661257;23;20585;-65
2024/04/25 10:37:44;;;;;;;4.27;3.97;;;;;;;11.97;100.00;100250.25;7644249;23;20274;-67
2024/04/25 10:41:07;;;;;;;4.77;4.37;;;;;;;12.30;100.00;100252.09;7653559;23;20283;-66
2024/04/25 10:44:29;;;;;;;4.43;4.03;;;;;;;13.15;100.00;100238.31;7665432;23;20442;-67
2024/04/25 10:47:54;;;;;;;4.23;3.70;;;;;;;12.75;100.00;100239.06;7640135;23;20275;-67
2024/04/25 10:51:17;;;;;;;4.30;3.90;;;;;;;12.35;100.00;100233.50;7648032;23;20320;-66
2024/04/25 10:54:40;;;;;;;6.17;5.03;;;;;;;11.80;100.00;100254.69;7659807;23;20508;-69
2024/04/25 10:58:12;;;;;;;4.50;4.10;;;;;;;11.59;100.00;100237.13;7646599;23;20270;-64
2024/04/25 11:01:35;;;;;;;4.13;3.73;;;;;;;12.10;100.00;100247.09;7647655;23;20278;-65
2024/04/25 11:05:02;;;;;;;4.13;3.77;;;;;;;11.48;100.00;100249.03;7657730;23;20267;-66
2024/04/25 11:08:24;;;;;;;3.57;2.40;;;;;;;9.57;100.00;100259.09;7657044;23;20290;-68
2024/04/25 11:11:46;;;;;;;2.90;2.37;;;;;;;9.43;100.00;100262.25;7640799;23;20517;-69
2024/04/25 11:15:18;;;;;;;2.97;2.50;;;;;;;9.35;100.00;100264.81;7651021;23;20274;-69
2024/04/25 11:18:41;;;;;;;2.27;2.07;;;;;;;9.58;100.00;100266.19;7655318;23;20275;-64
2024/04/25 11:22:06;;;;;;;2.20;2.10;;;;;;;10.04;100.00;100251.88;7648685;23;20266;-64
2024/04/25 11:25:28;;;;;;;1.80;1.67;;;;;;;9.84;100.00;100268.25;7648709;23;20278;-66
2024/04/25 11:28:51;;;;;;;2.60;1.83;;;;;;;10.74;100.00;100251.25;7657977;23;20294;-69
2024/04/25 11:32:17;;;;;;;1.30;1.20;;;;;;;11.07;100.00;100249.72;7634857;23;20267;-68
2024/04/25 11:35:39;;;;;;;1.20;1.20;;;;;;;10.78;100.00;100262.56;7648309;23;20307;-69
2024/04/25 11:39:05;;;;;;;1.60;1.50;;;;;;;10.33;100.00;100279.56;7665045;23;20267;-66
2024/04/25 11:42:28;;;;;;;2.10;1.90;;;;;;;9.64;100.00;100270.13;7649271;23;20267;-69
2024/04/25 11:45:50;;;;;;;1.33;1.23;;;;;;;9.37;100.00;100278.09;7650096;23;20311;-69
2024/04/25 11:49:13;;;;;;;0.97;0.87;;;;;;;9.40;100.00;100278.69;7661537;23;20443;-67
2024/04/25 11:52:35;;;;;;;1.40;1.30;;;;;;;9.10;100.00;100292.28;7651360;23;20811;-64
2024/04/25 11:56:00;;;;;;;1.23;1.13;;;;;;;8.92;100.00;100303.88;7653005;23;20275;-66
2024/04/25 11:59:23;;;;;;;1.23;0.90;;;;;;;8.70;100.00;100313.88;7668311;23;20299;-69
2024/04/25 12:02:46;;;;;;;0.73;0.73;;;;;;;8.74;100.00;100311.78;7644509;23;20278;-68
2024/04/25 12:06:08;;;;;;;1.50;0.80;;;;;;;8.63;100.00;100318.13;7652291;23;20274;-69
2024/04/25 12:09:31;;;;;;;2.00;0.70;;;;;;;7.83;100.00;100329.72;7660548;23;20271;-67
2024/04/25 12:12:56;;;;;;;0.50;0.50;;;;;;;8.11;100.00;100323.69;7655606;23;20282;-68
2024/04/25 12:16:18;;;;;;;1.00;0.63;;;;;;;7.73;100.00;100321.63;7643086;23;20323;-67
2024/04/25 12:19:41;;;;;;;0.80;0.80;;;;;;;7.78;100.00;100337.34;7663224;23;20311;-70
2024/04/25 12:23:04;;;;;;;2.30;0.80;;;;;;;8.36;100.00;100325.09;7650009;23;20267;-67
2024/04/25 12:26:26;;;;;;;1.43;0.80;;;;;;;8.30;100.00;100317.56;7654854;23;20546;-67
2024/04/25 12:29:51;;;;;;;1.53;0.70;;;;;;;8.57;100.00;100315.13;7662264;23;20319;-68
2024/04/25 12:33:13;;;;;;;0.70;0.63;;;;;;;9.50;100.00;100309.13;7658589;23;20310;-69
2024/04/25 12:36:36;;;;;;;2.63;1.63;;;;;;;9.88;100.00;100302.81;7604823;23;20282;-68
2024/04/25 12:39:58;;;;;;;1.33;1.23;;;;;;;9.89;100.00;100309.88;7664099;23;20279;-67
2024/04/25 12:43:21;;;;;;;0.60;0.60;;;;;;;8.55;100.00;100296.44;7662805;23;20272;-68
2024/04/25 12:46:47;;;;;;;1.13;0.70;;;;;;;8.94;100.00;100294.69;7642500;23;20271;-69
2024/04/25 12:50:10;;;;;;;0.40;0.40;;;;;;;9.42;100.00;100290.16;7657510;23;20274;-68
2024/04/25 12:53:33;;;;;;;0.73;0.70;;;;;;;10.09;100.00;100290.00;7665837;23;20263;-66
2024/04/25 12:56:56;;;;;;;0.60;0.60;;;;;;;11.06;100.00;100300.09;7653786;23;20283;-65
2024/04/25 13:00:18;;;;;;;0.60;0.60;;;;;;;11.32;100.00;100299.31;7646349;23;20338;-64
2024/04/25 13:03:48;;;;;;;1.37;0.60;;;;;;;11.26;100.00;100296.25;7662241;23;20282;-64
2024/04/25 13:07:11;;;;;;;0.97;0.77;;;;;;;10.68;100.00;100296.84;7636511;23;20291;-66
2024/04/25 13:10:33;;;;;;;1.10;1.10;;;;;;;11.41;100.00;100301.94;7646094;23;20275;-64
2024/04/25 13:13:55;;;;;;;0.80;0.80;;;;;;;10.97;100.00;100292.91;7666515;23;20298;-66
2024/04/25 13:17:17;;;;;;;3.37;1.07;;;;;;;11.27;100.00;100299.78;7640487;23;20274;-69
2024/04/25 13:20:43;;;;;;;1.17;0.87;;;;;;;11.31;100.00;100298.47;7643241;23;20267;-66
2024/04/25 13:24:06;;;;;;;1.97;1.17;;;;;;;10.92;100.00;100305.19;7666544;23;20271;-66
2024/04/25 13:27:28;;;;;;;0.87;0.87;;;;;;;10.66;100.00;100296.13;7652528;23;20275;-67
2024/04/25 13:30:50;;;;;;;1.00;0.93;;;;;;;10.12;100.00;100292.41;7644461;23;20283;-66
2024/04/25 13:34:14;;;;;;;2.40;1.03;;;;;;;10.36;100.00;100302.66;7668329;23;20283;-68
2024/04/25 13:37:39;;;;;;;1.30;0.73;;;;;;;9.46;100.00;100294.25;7650534;23;20267;-66
2024/04/25 13:41:03;;;;;;;2.30;1.00;;;;;;;10.00;100.00;100292.69;7652683;23;20311;-66
2024/04/25 13:44:25;;;;;;;1.30;1.17;;;;;;;10.97;100.00;100287.53;7660366;23;20279;-67
2024/04/25 13:47:47;;;;;;;5.53;1.93;;;;;;;10.65;100.00;100292.59;7642552;23;20591;-67
2024/04/25 13:51:09;;;;;;;1.20;1.10;;;;;;;10.97;100.00;100298.31;7648486;23;20271;-67
2024/04/25 13:54:34;;;;;;;0.97;0.90;;;;;;;10.48;100.00;100296.06;7662721;23;20267;-67
2024/04/25 13:57:56;;;;;;;2.53;0.97;;;;;;;10.38;100.00;100292.59;7654958;23;20275;-67
2024/04/25 14:01:20;;;;;;;1.33;1.23;;;;;;;9.86;100.00;100296.72;7653764;23;20271;-66
2024/04/25 14:04:42;;;;;;;1.43;0.80;;;;;;;9.86;100.00;100285.09;7656619;23;20267;-67
2024/04/25 14:08:04;;;;;;;1.33;1.17;;;;;;;9.98;100.00;100289.31;7658075;23;20315;-66
2024/04/25 14:11:30;;;;;;;2.40;1.40;;;;;;;10.56;100.00;100280.00;7647379;23;20442;-66
2024/04/25 14:14:53;;;;;;;3.33;1.07;;;;;;;10.77;100.00;100285.97;7662652;23;20879;-68
2024/04/25 14:18:15;;;;;;;1.17;1.07;;;;;;;10.26;100.00;100291.91;7657710;23;20271;-67
2024/04/25 14:21:37;;;;;;;2.73;1.10;;;;;;;10.19;100.00;100281.91;7653137;23;20275;-67
2024/04/25 14:28:42;;;;;;;3.93;2.10;;;;;;;11.07;100.00;100276.69;7664473;23;20274;-67
2024/04/25 14:28:45;;;;;;;5.07;1.57;;;;;;;11.11;100.00;100286.16;7668451;23;20279;-67
2024/04/25 14:32:08;;;;;;;1.20;1.10;;;;;;;10.91;100.00;100287.31;7634265;23;20544;-67
2024/04/25 14:35:32;;;;;;;1.97;1.00;;;;;;;10.93;100.00;100285.31;7657385;23;20275;-66
2024/04/25 14:38:54;;;;;;;1.20;1.10;;;;;;;10.87;100.00;100278.66;7663826;23;20281;-66
2024/04/25 14:42:16;;;;;;;2.20;1.47;;;;;;;11.16;100.00;100268.50;7655370;23;20278;-66
2024/04/25 14:45:42;;;;;;;6.67;1.30;;;;;;;11.15;100.00;100277.59;7641985;23;20279;-66
2024/04/25 14:49:04;;;;;;;1.67;1.07;;;;;;;10.70;100.00;100274.09;7662446;23;20279;-67
2024/04/25 14:52:27;;;;;;;0.90;0.90;;;;;;;10.90;100.00;100281.06;7653829;23;20631;-66
2024/04/25 14:55:49;;;;;;;4.20;1.20;;;;;;;11.05;100.00;100273.28;7658384;23;20580;-67
2024/04/25 14:59:12;;;;;;;3.50;1.50;;;;;;;11.17;100.00;100275.59;7665977;23;20495;-67
2024/04/25 15:02:37;;;;;;;1.73;1.30;;;;;;;11.31;100.00;100281.44;7644293;23;20275;-67
2024/04/25 15:06:00;;;;;;;1.80;1.43;;;;;;;11.36;100.00;100287.22;7650256;23;20576;-67
2024/04/25 15:09:22;;;;;;;1.50;1.40;;;;;;;11.35;100.00;100288.25;7644658;23;20615;-67
2024/04/25 15:12:44;;;;;;;1.63;1.30;;;;;;;10.80;100.00;100288.38;7650260;23;20334;-66
2024/04/25 15:16:07;;;;;;;3.53;1.33;;;;;;;10.94;100.00;100285.16;7639258;23;20311;-66
2024/04/25 15:19:36;;;;;;;1.77;1.60;;;;;;;11.10;100.00;100290.69;7655112;23;20275;-67
2024/04/25 15:22:58;;;;;;;2.60;1.10;;;;;;;11.30;100.00;100288.69;7653407;23;20275;-66
2024/04/25 15:26:21;;;;;;;1.40;1.00;;;;;;;11.09;100.00;100294.41;7648626;23;20275;-66
2024/04/25 15:29:44;;;;;;;3.07;1.60;;;;;;;11.29;100.00;100292.38;7660442;23;20267;-67
2024/04/25 15:33:07;;;;;;;2.23;0.97;;;;;;;10.97;100.00;100284.81;7654044;23;20266;-66
2024/04/25 15:36:32;;;;;;;2.70;1.80;;;;;;;11.13;100.00;100285.00;7662735;23;20583;-67
2024/04/25 15:39:56;;;;;;;5.00;1.87;;;;;;;11.30;100.00;100282.44;7667285;23;21527;-67
2024/04/25 15:43:18;;;;;;;3.23;1.33;;;;;;;11.28;100.00;100285.31;7660679;23;20275;-67
2024/04/25 15:46:40;;;;;;;1.23;1.13;;;;;;;11.28;100.00;100290.72;7644013;23;20283;-67
2024/04/25 15:50:02;;;;;;;2.27;1.27;;;;;;;11.58;100.00;100284.88;7664192;23;20477;-67
2024/04/25 15:53:27;;;;;;;2.60;1.40;;;;;;;12.29;100.00;100288.22;7667580;23;20900;-68
2024/04/25 15:56:50;;;;;;;3.43;1.93;;;;;;;12.62;100.00;100283.81;7656616;23;20275;-68
2024/04/25 16:00:14;;;;;;;2.87;2.40;;;;;;;12.76;100.00;100284.03;7650172;23;20566;-66
2024/04/25 16:03:36;;;;;;;1.30;1.20;;;;;;;12.84;100.00;100275.09;7657516;23;20276;-68
2024/04/25 16:06:58;;;;;;;3.03;1.23;;;;;;;12.25;100.00;100284.16;7655774;23;20846;-66
2024/04/25 16:10:23;;;;;;;2.27;1.60;;;;;;;12.21;100.00;100280.06;7651665;23;20319;-66
2024/04/25 16:13:46;;;;;;;2.37;1.50;;;;;;;11.53;100.00;100278.25;7665342;23;20278;-68